Time;durP1;ratioP1;P1;durP2;ratioP2;P2;SDS_P1;SDS_P2;PMS_P1;PMS_P2;Temp;Humidity;BMP_temperature;BMP_pressure;BME280_temperature;BME280_humidity;BME280_pressure;Samples;Min_cycle;Max_cycle;Signal;HPM_P1;HPM_P2
2024/01/12 00:00:14;;;;;;;;;5.50;4.25;;;;;19.55;35.03;103308.63;6368153;22;45152;-76
2024/01/12 00:02:39;;;;;;;;;5.75;5.00;;;;;19.52;35.24;103308.84;6368325;22;45908;-76
2024/01/12 00:05:07;;;;;;;;;6.75;5.75;;;;;19.35;35.10;103280.94;6368418;22;45348;-76
2024/01/12 00:07:32;;;;;;;;;6.00;5.00;;;;;19.34;35.19;103281.88;6368304;22;45235;-75
2024/01/12 00:09:57;;;;;;;;;5.50;5.00;;;;;19.19;35.28;103263.47;6367974;22;45197;-74
2024/01/12 00:12:23;;;;;;;;;1.00;1.00;;;;;19.48;35.11;103302.94;6368227;22;45361;-75
2024/01/12 00:14:48;;;;;;;;;5.75;5.00;;;;;19.31;35.01;103285.56;6367995;22;45776;-75
2024/01/12 00:17:13;;;;;;;;;5.00;5.00;;;;;19.48;35.01;103310.00;6368156;22;46097;-75
2024/01/12 00:19:38;;;;;;;;;5.75;4.25;;;;;19.48;35.21;103310.00;6368154;22;45193;-75
2024/01/12 00:22:04;;;;;;;;;7.75;7.00;;;;;19.47;35.08;103309.16;6367781;22;46741;-75
2024/01/12 00:24:29;;;;;;;;;4.00;4.00;;;;;19.38;35.04;103293.94;6367158;22;46655;-75
2024/01/12 00:26:54;;;;;;;;;9.00;5.75;;;;;19.44;35.16;103305.88;6367958;22;45379;-75
2024/01/12 00:29:20;;;;;;;;;7.75;6.50;;;;;19.46;35.00;103309.25;6368418;22;45313;-75
2024/01/12 00:31:45;;;;;;;;;5.00;5.00;;;;;19.45;34.97;103311.06;6367597;22;46266;-75
2024/01/12 00:34:10;;;;;;;;;4.75;4.75;;;;;19.44;34.99;103311.16;6368295;22;45216;-76
2024/01/12 00:36:36;;;;;;;;;6.00;6.00;;;;;19.43;35.09;103304.19;6367914;22;45279;-75
2024/01/12 00:39:01;;;;;;;;;4.00;4.00;;;;;19.15;34.83;103268.06;6368049;22;45430;-75
2024/01/12 00:41:26;;;;;;;;;7.25;6.00;;;;;19.42;35.17;103311.25;6368100;22;45284;-75
2024/01/12 00:43:51;;;;;;;;;8.00;5.25;;;;;19.35;35.07;103291.50;6368136;22;45244;-75
2024/01/12 00:46:17;;;;;;;;;5.00;4.25;;;;;19.31;34.88;103288.19;6368160;22;46819;-76
2024/01/12 00:48:43;;;;;;;;;3.75;3.75;;;;;19.35;34.83;103294.13;6368329;22;45363;-75
2024/01/12 00:51:10;;;;;;;;;6.25;6.00;;;;;19.33;34.90;103293.41;6367521;22;47072;-75
2024/01/12 00:53:36;;;;;;;;;7.33;5.00;;;;;19.42;34.82;103305.13;6367356;22;45241;-75
2024/01/12 00:56:01;;;;;;;;;6.75;6.00;;;;;19.31;34.71;103287.38;6367908;22;45169;-74
2024/01/12 00:58:27;;;;;;;;;6.00;4.00;;;;;19.41;34.83;103306.94;6368114;22;45296;-75
2024/01/12 01:00:52;;;;;;;;;5.50;4.75;;;;;19.41;34.72;103296.38;6367199;22;55234;-75
2024/01/12 01:03:17;;;;;;;;;8.00;4.75;;;;;19.22;34.94;103260.63;6339354;22;47630;-75
2024/01/12 01:05:43;;;;;;;;;5.00;5.00;;;;;19.26;35.09;103272.66;6367536;22;45319;-75
2024/01/12 01:08:08;;;;;;;;;6.33;4.33;;;;;19.40;34.93;103290.25;6367842;22;45553;-75
2024/01/12 01:10:33;;;;;;;;;8.00;5.25;;;;;19.39;34.87;103291.19;6367273;22;46994;-75
2024/01/12 01:12:58;;;;;;;;;4.00;3.00;;;;;19.31;34.82;103276.81;6368111;22;45406;-75
2024/01/12 01:15:24;;;;;;;;;6.00;4.00;;;;;19.23;34.66;103261.50;6367083;22;56649;-75
2024/01/12 01:17:50;;;;;;;;;5.00;5.00;;;;;19.40;34.68;103295.53;6367560;22;45273;-75
2024/01/12 01:20:16;;;;;;;;;5.75;5.00;;;;;19.36;34.70;103277.34;6367884;22;45255;-75
2024/01/12 01:22:41;;;;;;;;;7.50;7.50;;;;;19.26;34.52;103263.91;6366992;22;45303;-75
2024/01/12 01:25:07;;;;;;;;;5.00;4.75;;;;;19.39;34.71;103277.97;6339545;22;45422;-75
2024/01/12 01:27:32;;;;;;;;;7.75;5.00;;;;;19.40;34.85;103284.13;6339590;22;45333;-75
2024/01/12 01:29:59;;;;;;;;;5.75;4.00;;;;;19.32;34.68;103265.28;6367789;22;45903;-75
2024/01/12 01:32:25;;;;;;;;;4.00;3.50;;;;;19.23;34.90;103254.38;6367443;22;45211;-75
2024/01/12 01:34:50;;;;;;;;;3.00;3.00;;;;;19.16;34.82;103237.25;6367892;22;45114;-75
2024/01/12 01:37:15;;;;;;;;;6.75;6.00;;;;;19.33;34.90;103275.75;6366985;22;45146;-75
2024/01/12 01:39:41;;;;;;;;;8.00;6.00;;;;;19.33;34.79;103273.13;6367031;22;45986;-75
2024/01/12 01:42:06;;;;;;;;;4.75;4.50;;;;;19.38;34.40;103278.94;6367062;22;50509;-75
2024/01/12 01:44:31;;;;;;;;;6.75;5.50;;;;;19.32;34.84;103271.44;6367815;22;45606;-76
2024/01/12 01:46:58;;;;;;;;;5.75;4.75;;;;;19.39;34.80;103272.69;6367870;22;45213;-75
2024/01/12 01:49:24;;;;;;;;;5.33;4.00;;;;;19.40;34.72;103276.19;6367667;22;46083;-76
2024/01/12 01:51:50;;;;;;;;;7.00;4.00;;;;;19.34;34.59;103271.31;6367005;22;45322;-75
2024/01/12 01:54:19;;;;;;;;;3.00;3.00;;;;;19.38;34.75;103270.19;6339208;22;45290;-75
2024/01/12 01:56:45;;;;;;;;;4.75;4.75;;;;;19.38;34.64;103275.47;6367508;22;45198;-75
2024/01/12 01:59:12;;;;;;;;;4.50;4.50;;;;;19.37;34.77;103271.97;6366910;22;46366;-76
2024/01/12 02:01:38;;;;;;;;;5.25;4.00;;;;;18.99;34.62;103212.00;6367495;22;45421;-76
2024/01/12 02:04:05;;;;;;;;;3.00;3.00;;;;;19.37;34.66;103274.59;6367056;22;45287;-76
2024/01/12 02:06:31;;;;;;;;;5.50;5.25;;;;;19.32;34.77;103262.66;6367152;22;45235;-76
2024/01/12 02:08:56;;;;;;;;;4.67;4.00;;;;;19.35;34.82;103263.31;6366888;22;46576;-76
2024/01/12 02:11:22;;;;;;;;;4.00;4.00;;;;;19.12;34.47;103225.22;6367215;22;45400;-75
2024/01/12 02:13:47;;;;;;;;;5.25;4.50;;;;;19.09;34.69;103223.63;6367632;22;45275;-75
2024/01/12 02:16:13;;;;;;;;;5.25;4.00;;;;;19.37;34.66;103269.31;6312768;22;45549;-76
2024/01/12 02:18:38;;;;;;;;;7.00;5.00;;;;;19.32;34.65;103265.28;6367611;22;47047;-76
2024/01/12 02:21:04;;;;;;;;;5.50;5.50;;;;;19.15;34.77;103243.50;6368470;22;45202;-76
2024/01/12 02:23:29;;;;;;;;;4.00;3.25;;;;;19.36;34.64;103259.69;6369068;22;45336;-76
2024/01/12 02:25:54;;;;;;;;;5.50;3.00;;;;;19.36;34.66;103266.78;6367851;22;58298;-76
2024/01/12 02:28:19;;;;;;;;;6.00;5.00;;;;;18.94;34.57;103194.66;6368774;22;46380;-76
2024/01/12 02:30:46;;;;;;;;;6.00;4.00;;;;;19.37;34.75;103263.19;6368332;22;45382;-76
2024/01/12 02:33:11;;;;;;;;;3.75;3.75;;;;;19.19;34.62;103231.81;6369044;22;45383;-75
2024/01/12 02:35:36;;;;;;;;;5.75;5.00;;;;;19.36;34.55;103264.16;6368368;22;45160;-75
2024/01/12 02:38:02;;;;;;;;;5.00;5.00;;;;;19.35;34.70;103258.03;6368609;22;45193;-75
2024/01/12 02:40:27;;;;;;;;;4.25;4.00;;;;;18.98;34.64;103190.03;6368333;22;45143;-75
2024/01/12 02:42:53;;;;;;;;;5.00;5.00;;;;;19.28;34.75;103247.00;6368657;22;45296;-76
2024/01/12 02:45:19;;;;;;;;;6.00;4.50;;;;;19.16;34.72;103227.53;6368836;22;45419;-75
2024/01/12 02:47:45;;;;;;;;;4.00;4.00;;;;;18.93;34.77;103185.06;6368184;22;46412;-75
2024/01/12 02:50:10;;;;;;;;;3.00;3.00;;;;;19.37;34.73;103257.91;6367780;22;45419;-75
2024/01/12 02:52:36;;;;;;;;;6.00;4.25;;;;;18.98;34.66;103194.47;6368289;22;45437;-75
2024/01/12 02:55:05;;;;;;;;;4.00;2.50;;;;;19.35;34.82;103255.38;6369028;22;45384;-75
2024/01/12 02:57:31;;;;;;;;;3.50;3.50;;;;;19.36;34.54;103259.69;6367617;22;47349;-75
2024/01/12 02:59:57;;;;;;;;;6.25;3.75;;;;;19.37;34.66;103265.81;6367729;22;45277;-75
2024/01/12 03:02:23;;;;;;;;;2.50;2.50;;;;;19.37;34.70;103261.41;6368905;22;45294;-75
2024/01/12 03:04:49;;;;;;;;;5.00;3.25;;;;;19.31;34.62;103253.88;6368482;22;45563;-75
2024/01/12 03:07:14;;;;;;;;;4.75;4.50;;;;;19.22;34.43;103236.88;6368262;22;46836;-75
2024/01/12 03:09:39;;;;;;;;;4.00;3.00;;;;;19.28;34.86;103244.38;6368708;22;45281;-75
2024/01/12 03:12:05;;;;;;;;;4.00;4.00;;;;;19.32;34.56;103249.44;6368136;22;45263;-75
2024/01/12 03:14:30;;;;;;;;;4.00;4.00;;;;;19.25;34.58;103231.41;6368197;22;45477;-75
2024/01/12 03:16:56;;;;;;;;;3.50;3.50;;;;;19.28;34.78;103251.47;6367949;22;46166;-75
2024/01/12 03:19:21;;;;;;;;;5.50;5.50;;;;;19.35;34.64;103260.66;6368002;22;47404;-75
2024/01/12 03:21:46;;;;;;;;;3.50;3.50;;;;;19.30;34.59;103260.13;6368868;22;45251;-75
2024/01/12 03:24:12;;;;;;;;;3.50;3.50;;;;;18.87;34.73;103171.41;6368685;22;45478;-75
2024/01/12 03:26:37;;;;;;;;;4.00;4.00;;;;;18.98;34.80;103194.47;6340067;22;47130;-75
2024/01/12 03:29:03;;;;;;;;;3.50;3.50;;;;;19.36;34.62;103249.13;6368455;22;45231;-75
2024/01/12 03:31:28;;;;;;;;;3.00;3.00;;;;;19.37;34.56;103252.63;6368772;22;45264;-75
2024/01/12 03:33:54;;;;;;;;;4.00;4.00;;;;;19.36;34.60;103248.31;6367821;22;45492;-75
2024/01/12 03:36:19;;;;;;;;;5.00;3.50;;;;;19.31;34.79;103242.50;6367819;22;45869;-75
2024/01/12 03:38:45;;;;;;;;;3.67;3.33;;;;;19.20;34.62;103228.22;6368085;22;45377;-75
2024/01/12 03:41:11;;;;;;;;;3.25;3.25;;;;;19.35;34.63;103252.75;6368193;22;45223;-75
2024/01/12 03:43:36;;;;;;;;;5.50;5.00;;;;;19.36;34.70;103251.78;6368697;22;45229;-75
2024/01/12 03:46:01;;;;;;;;;3.75;3.75;;;;;19.35;34.68;103236.91;6368305;22;45178;-75
2024/01/12 03:48:27;;;;;;;;;3.25;3.25;;;;;18.96;34.78;103170.81;6367636;22;45233;-75
2024/01/12 03:50:53;;;;;;;;;4.50;4.00;;;;;18.56;35.03;103113.66;6368558;22;45292;-75
2024/01/12 03:53:18;;;;;;;;;1.67;1.67;;;;;19.18;34.82;103209.00;6368555;22;45266;-75
2024/01/12 03:55:43;;;;;;;;;5.33;4.00;;;;;19.27;34.69;103216.31;6368318;22;45400;-75
2024/01/12 03:58:09;;;;;;;;;4.00;3.75;;;;;19.34;34.79;103222.00;6367709;22;45350;-75
2024/01/12 04:00:34;;;;;;;;;2.75;2.25;;;;;19.34;34.78;103227.28;6368657;22;45226;-75
2024/01/12 04:02:59;;;;;;;;;6.00;4.00;;;;;19.04;34.78;103179.09;6366983;22;45354;-75
2024/01/12 04:05:25;;;;;;;;;2.25;2.25;;;;;19.34;34.74;103227.28;6367848;22;46996;-75
2024/01/12 04:07:50;;;;;;;;;2.33;2.00;;;;;19.27;34.72;103218.09;6367497;22;50806;-75
2024/01/12 04:10:15;;;;;;;;;3.33;3.33;;;;;19.23;34.62;103200.78;6368628;22;45250;-75
2024/01/12 04:12:41;;;;;;;;;6.00;3.00;;;;;19.31;34.81;103216.94;6367943;22;45367;-75
2024/01/12 04:15:10;;;;;;;;;2.00;2.00;;;;;19.35;34.51;103233.41;6367830;22;46161;-76
2024/01/12 04:17:35;;;;;;;;;2.75;2.00;;;;;19.35;34.68;103225.50;6367416;22;45283;-75
2024/01/12 04:20:01;;;;;;;;;4.00;3.00;;;;;19.34;34.68;103226.44;6368057;22;45366;-75
2024/01/12 04:22:26;;;;;;;;;3.00;3.00;;;;;19.29;34.70;103217.03;6368434;22;45211;-75
2024/01/12 04:24:51;;;;;;;;;3.00;3.00;;;;;19.16;34.70;103184.47;6368193;22;46050;-75
2024/01/12 04:27:17;;;;;;;;;2.67;2.67;;;;;19.36;34.60;103214.00;6368128;22;45317;-75
2024/01/12 04:29:42;;;;;;;;;1.00;1.00;;;;;19.35;34.70;103213.16;6368219;22;45160;-75
2024/01/12 04:32:07;;;;;;;;;4.00;4.00;;;;;19.16;34.64;103182.69;6368032;22;45376;-75
2024/01/12 04:34:36;;;;;;;;;2.33;2.00;;;;;19.35;34.40;103213.16;6367785;22;55271;-75
2024/01/12 04:37:02;;;;;;;;;5.25;4.75;;;;;19.36;34.79;103209.53;6368083;22;45331;-75
2024/01/12 04:39:27;;;;;;;;;3.00;3.00;;;;;19.32;34.72;103207.22;6368453;22;45346;-75
2024/01/12 04:41:52;;;;;;;;;2.00;2.00;;;;;18.77;34.67;103116.66;6367112;22;55201;-75
2024/01/12 04:44:18;;;;;;;;;2.00;2.00;;;;;19.35;34.87;103209.66;6367797;22;46775;-75
2024/01/12 04:46:43;;;;;;;;;3.00;2.00;;;;;18.77;34.64;103107.91;6367645;22;45220;-75
2024/01/12 04:49:09;;;;;;;;;7.00;4.67;;;;;19.36;34.75;103206.91;6367928;22;45198;-75
2024/01/12 04:51:35;;;;;;;;;3.00;3.00;;;;;19.33;34.60;103207.13;6367982;22;45193;-75
2024/01/12 04:54:00;;;;;;;;;2.50;2.50;;;;;19.16;34.68;103180.03;6368057;22;45205;-75
2024/01/12 04:56:25;;;;;;;;;3.00;3.00;;;;;18.96;34.70;103144.44;6367335;22;51116;-75
2024/01/12 04:58:51;;;;;;;;;3.25;3.25;;;;;19.35;34.62;103207.88;6367906;22;45232;-75
2024/01/12 05:01:16;;;;;;;;;2.00;2.00;;;;;19.35;34.81;103207.03;6367373;22;45117;-75
2024/01/12 05:03:45;;;;;;;;;2.50;2.50;;;;;18.95;34.76;103148.03;6368077;22;46514;-75
2024/01/12 05:06:10;;;;;;;;;3.00;3.00;;;;;19.35;34.92;103201.75;6367515;22;45307;-75
2024/01/12 05:08:37;;;;;;;;;4.00;2.50;;;;;19.32;34.71;103204.56;6367653;22;45303;-74
2024/01/12 05:11:02;;;;;;;;;5.00;3.00;;;;;19.35;34.79;103199.94;6367776;22;45601;-75
2024/01/12 05:13:28;;;;;;;;;2.67;2.67;;;;;19.03;34.56;103151.00;6367845;22;45218;-75
2024/01/12 05:15:54;;;;;;;;;3.00;3.00;;;;;19.35;34.58;103199.09;6367104;22;45387;-75
2024/01/12 05:18:19;;;;;;;;;3.00;2.00;;;;;19.35;34.74;103199.09;6368285;22;45254;-75
2024/01/12 05:20:44;;;;;;;;;2.00;2.00;;;;;19.30;34.70;103194.13;6367998;22;45205;-75
2024/01/12 05:23:10;;;;;;;;;2.00;2.00;;;;;19.14;34.88;103165.25;6367362;22;46196;-75
2024/01/12 05:25:35;;;;;;;;;1.33;1.00;;;;;19.18;34.83;103170.25;6367541;22;45280;-75
2024/01/12 05:28:00;;;;;;;;;3.00;2.00;;;;;19.32;34.74;103196.66;6368044;22;45331;-75
2024/01/12 05:30:26;;;;;;;;;2.75;2.00;;;;;19.04;34.72;103154.47;6367711;22;45262;-76
2024/01/12 05:32:51;;;;;;;;;2.25;2.25;;;;;19.04;34.87;103150.06;6367862;22;46015;-76
2024/01/12 05:35:16;;;;;;;;;2.67;2.67;;;;;19.34;34.78;103192.97;6367661;22;45190;-76
2024/01/12 05:37:42;;;;;;;;;1.00;1.00;;;;;19.28;34.74;103194.22;6368117;22;45206;-76
2024/01/12 05:40:08;;;;;;;;;1.00;1.00;;;;;19.34;34.87;103202.66;6367727;22;45157;-76
2024/01/12 05:42:33;;;;;;;;;2.00;2.00;;;;;19.34;34.68;103198.25;6339220;22;48147;-75
2024/01/12 05:44:59;;;;;;;;;2.25;1.75;;;;;19.32;34.99;103192.22;6367083;22;45349;-76
2024/01/12 05:47:24;;;;;;;;;1.25;1.25;;;;;19.33;34.80;103193.94;6368004;22;45282;-76
2024/01/12 05:49:49;;;;;;;;;2.00;2.00;;;;;18.79;34.78;103106.00;6368006;22;45465;-75
2024/01/12 05:52:15;;;;;;;;;2.00;2.00;;;;;19.33;34.64;103191.28;6367543;22;56281;-74
2024/01/12 05:54:40;;;;;;;;;2.00;2.00;;;;;19.10;34.94;103150.59;6369047;22;45311;-74
2024/01/12 05:57:05;;;;;;;;;1.33;1.33;;;;;19.15;34.91;103165.16;6368775;22;45234;-75
2024/01/12 05:59:32;;;;;;;;;2.00;2.00;;;;;19.33;34.77;103185.16;6368762;22;45261;-75
2024/01/12 06:01:57;;;;;;;;;3.33;1.00;;;;;19.31;34.62;103189.72;6368968;22;45430;-75
2024/01/12 06:04:23;;;;;;;;;2.33;1.67;;;;;19.30;34.68;103183.56;6369011;22;45233;-75
2024/01/12 06:06:48;;;;;;;;;3.00;3.00;;;;;19.31;34.66;103184.44;6369379;22;45216;-76
2024/01/12 06:09:13;;;;;;;;;2.67;2.67;;;;;19.10;34.75;103147.97;6369132;22;45196;-75
2024/01/12 06:11:42;;;;;;;;;3.00;1.00;;;;;19.35;34.65;103189.38;6368744;22;46077;-75
2024/01/12 06:14:08;;;;;;;;;3.00;1.00;;;;;19.35;34.64;103189.38;6368356;22;45330;-76
2024/01/12 06:16:34;;;;;;;;;4.25;2.75;;;;;19.36;34.57;103191.06;6368768;22;45232;-75
2024/01/12 06:18:59;;;;;;;;;2.00;2.00;;;;;19.34;34.72;103187.69;6369153;22;45240;-75
2024/01/12 06:21:24;;;;;;;;;3.00;1.75;;;;;19.21;34.87;103169.19;6368254;22;46981;-75
2024/01/12 06:23:49;;;;;;;;;3.33;1.00;;;;;19.16;34.54;103163.34;6368673;22;45386;-75
2024/01/12 06:26:15;;;;;;;;;1.00;1.00;;;;;19.05;34.57;103143.81;6368558;22;53230;-74
2024/01/12 06:28:41;;;;;;;;;1.67;1.67;;;;;19.35;34.48;103205.22;6367974;22;45429;-75
2024/01/12 06:31:06;;;;;;;;;1.33;1.00;;;;;19.35;34.76;103199.09;6368557;22;49385;-75
2024/01/12 06:33:33;;;;;;;;;1.67;1.00;;;;;19.28;34.60;103194.22;6368802;22;45264;-76
2024/01/12 06:35:58;;;;;;;;;1.00;1.00;;;;;19.28;34.80;103188.13;6368502;22;45270;-75
2024/01/12 06:38:23;;;;;;;;;2.00;2.00;;;;;19.35;34.64;103202.59;6368761;22;45186;-75
2024/01/12 06:40:49;;;;;;;;;1.00;1.00;;;;;19.35;34.81;103205.22;6368727;22;45303;-75
2024/01/12 06:43:14;;;;;;;;;2.00;2.00;;;;;19.30;34.66;103196.78;6367794;22;45272;-75
2024/01/12 06:45:40;;;;;;;;;4.00;2.67;;;;;19.35;34.80;103209.66;6368608;22;45729;-75
2024/01/12 06:48:05;;;;;;;;;1.50;1.50;;;;;19.17;34.74;103181.75;6368624;22;45267;-75
2024/01/12 06:50:30;;;;;;;;;1.00;1.00;;;;;19.17;34.99;103172.97;6368524;22;46109;-76
2024/01/12 06:52:56;;;;;;;;;2.00;2.00;;;;;19.29;35.16;103200.34;6368228;22;45319;-75
2024/01/12 06:55:22;;;;;;;;;2.33;1.33;;;;;19.26;34.80;103195.28;6368462;22;45371;-74
2024/01/12 06:57:47;;;;;;;;;1.33;1.33;;;;;19.09;34.94;103185.84;6368081;22;45391;-75
2024/01/12 07:00:15;;;;;;;;;2.00;2.00;;;;;19.16;34.48;103185.31;6367855;22;45956;-75
2024/01/12 07:02:40;;;;;;;;;0.67;0.67;;;;;19.20;34.75;103196.56;6368137;22;45376;-75
2024/01/12 07:05:06;;;;;;;;;2.00;2.00;;;;;19.24;34.61;103190.09;6368239;22;45397;-76
2024/01/12 07:07:31;;;;;;;;;1.67;1.67;;;;;19.22;34.85;103189.38;6368703;22;45376;-75
2024/01/12 07:09:56;;;;;;;;;2.00;2.00;;;;;19.34;34.64;103208.81;6368170;22;51696;-75
2024/01/12 07:12:22;;;;;;;;;1.33;1.33;;;;;19.33;34.63;103204.50;6368021;22;45246;-75
2024/01/12 07:14:47;;;;;;;;;2.00;1.00;;;;;19.11;34.64;103174.22;6368662;22;45610;-75
2024/01/12 07:17:13;;;;;;;;;2.00;2.00;;;;;19.33;34.45;103212.41;6368356;22;45200;-75
2024/01/12 07:19:38;;;;;;;;;2.00;2.00;;;;;19.23;34.63;103190.22;6367942;22;47005;-75
2024/01/12 07:22:03;;;;;;;;;3.00;1.00;;;;;19.34;34.75;103216.72;6368196;22;45229;-75
2024/01/12 07:24:29;;;;;;;;;1.50;1.50;;;;;19.34;34.71;103219.38;6368288;22;45454;-75
2024/01/12 07:26:54;;;;;;;;;2.33;1.00;;;;;19.16;34.53;103187.97;6367843;22;45697;-75
2024/01/12 07:29:22;;;;;;;;;3.00;2.00;;;;;19.22;34.78;103204.38;6368086;22;47082;-75
2024/01/12 07:31:51;;;;;;;;;1.75;1.75;;;;;19.36;34.68;103216.63;6368306;22;45436;-75
2024/01/12 07:34:17;;;;;;;;;1.67;1.67;;;;;19.37;35.05;103219.16;6368844;22;45257;-76
2024/01/12 07:36:43;;;;;;;;;2.00;1.00;;;;;19.37;35.11;103215.66;6367428;22;45517;-76
2024/01/12 07:39:08;;;;;;;;;1.00;1.00;;;;;19.37;35.25;103213.03;6368094;22;45235;-76
2024/01/12 07:41:34;;;;;;;;;2.67;2.00;;;;;19.33;35.25;103211.56;6367434;22;45225;-77
2024/01/12 07:43:59;;;;;;;;;1.67;1.67;;;;;19.34;35.34;103221.16;6339382;22;47440;-76
2024/01/12 07:46:25;;;;;;;;;2.00;1.00;;;;;19.38;35.42;103217.38;6367647;22;45267;-78
2024/01/12 07:48:51;;;;;;;;;1.00;1.00;;;;;19.21;35.62;103192.94;6367647;22;46083;-77
2024/01/12 07:51:17;;;;;;;;;1.00;1.00;;;;;19.11;35.66;103186.56;6364044;22;45347;-75
2024/01/12 07:53:42;;;;;;;;;2.00;2.00;;;;;19.42;35.63;103218.84;6367865;22;45224;-75
2024/01/12 07:56:09;;;;;;;;;1.00;1.00;;;;;19.37;35.67;103216.53;6353464;22;45513;-74
2024/01/12 07:58:34;;;;;;;;;1.00;1.00;;;;;19.37;35.60;103210.41;6363580;22;46175;-74
2024/01/12 08:01:00;;;;;;;;;2.00;1.00;;;;;19.42;35.58;103215.34;6364455;22;45398;-75
2024/01/12 08:03:25;;;;;;;;;1.67;1.00;;;;;19.41;35.63;103219.81;6363518;22;46633;-76
2024/01/12 08:05:51;;;;;;;;;3.00;1.33;;;;;19.35;35.57;103221.06;6335866;22;51296;-75
2024/01/12 08:08:17;;;;;;;;;1.33;1.00;;;;;19.39;35.74;103219.03;6363885;22;46533;-75
2024/01/12 08:10:42;;;;;;;;;2.00;2.00;;;;;19.29;35.62;103209.13;6356726;22;45731;-75
2024/01/12 08:13:07;;;;;;;;;1.67;1.67;;;;;19.25;35.80;103204.16;6351625;22;52548;-75
2024/01/12 08:15:33;;;;;;;;;1.00;1.00;;;;;19.32;35.59;103200.16;6351420;22;45784;-75
2024/01/12 08:17:58;;;;;;;;;3.00;1.33;;;;;19.38;35.70;103217.38;6351927;22;45317;-75
2024/01/12 08:20:23;;;;;;;;;2.00;2.00;;;;;19.36;35.63;103214.00;6348990;22;45206;-75
2024/01/12 08:22:49;;;;;;;;;2.33;1.00;;;;;19.26;35.70;103204.03;6349470;22;45329;-75
2024/01/12 08:25:14;;;;;;;;;1.00;1.00;;;;;19.30;35.53;103204.69;6347376;22;54663;-72
2024/01/12 08:27:39;;;;;;;;;1.33;1.33;;;;;19.31;35.77;103206.38;6351258;22;45565;-75
2024/01/12 08:30:07;;;;;;;;;2.00;2.00;;;;;19.25;35.62;103201.53;6350581;22;59562;-74
2024/01/12 08:32:33;;;;;;;;;2.00;2.00;;;;;19.36;35.47;103216.63;6348377;22;45206;-74
2024/01/12 08:34:58;;;;;;;;;1.00;1.00;;;;;19.35;35.43;103215.78;6349151;22;45574;-76
2024/01/12 08:37:23;;;;;;;;;1.33;1.33;;;;;19.35;35.44;103210.50;6348606;22;45767;-75
2024/01/12 08:39:49;;;;;;;;;1.00;1.00;;;;;19.30;35.36;103217.91;6351329;22;45876;-76
2024/01/12 08:42:14;;;;;;;;;1.00;1.00;;;;;19.33;35.58;103215.06;6349880;22;45347;-76
2024/01/12 08:44:39;;;;;;;;;2.00;2.00;;;;;19.35;35.41;103209.66;6348411;22;45482;-77
2024/01/12 08:47:05;;;;;;;;;2.33;1.00;;;;;19.16;35.42;103193.25;6359918;22;45903;-76
2024/01/12 08:49:30;;;;;;;;;1.33;1.33;;;;;19.35;35.58;103226.34;6363990;22;45297;-74
2024/01/12 08:51:56;;;;;;;;;1.00;1.00;;;;;19.32;35.42;103213.34;6363424;22;47487;-75
2024/01/12 08:54:21;;;;;;;;;4.00;1.00;;;;;19.22;35.19;103193.81;6364200;22;45434;-75
2024/01/12 08:56:47;;;;;;;;;1.67;1.67;;;;;19.21;35.13;103203.50;6363799;22;45387;-75
2024/01/12 08:59:12;;;;;;;;;1.00;1.00;;;;;19.17;35.31;103196.72;6335411;22;45373;-76
2024/01/12 09:01:38;;;;;;;;;1.00;1.00;;;;;19.34;35.26;103218.50;6365739;22;45264;-75
2024/01/12 09:04:03;;;;;;;;;1.00;1.00;;;;;19.34;35.28;103227.28;6367146;22;45282;-75
2024/01/12 09:06:29;;;;;;;;;2.00;1.00;;;;;19.30;35.16;103231.09;6366725;22;46182;-75
2024/01/12 09:08:55;;;;;;;;;3.00;2.00;;;;;19.21;35.36;103223.78;6367956;22;45284;-75
2024/01/12 09:11:21;;;;;;;;;1.00;1.00;;;;;19.35;35.11;103238.69;6367654;22;45407;-75
2024/01/12 09:13:47;;;;;;;;;4.33;1.33;;;;;19.34;35.06;103237.00;6367300;22;45435;-75
2024/01/12 09:16:13;;;;;;;;;2.00;1.00;;;;;19.34;35.05;103242.28;6367655;22;46301;-75
2024/01/12 09:18:38;;;;;;;;;2.00;2.00;;;;;19.20;34.96;103219.47;6367226;22;45339;-75
2024/01/12 09:21:04;;;;;;;;;2.00;1.00;;;;;19.34;35.10;103235.19;6367465;22;45208;-75
2024/01/12 09:23:30;;;;;;;;;3.00;1.00;;;;;19.35;35.12;103242.19;6367802;22;45432;-75
2024/01/12 09:25:56;;;;;;;;;1.33;1.33;;;;;19.32;35.00;103238.91;6366947;22;46436;-76
2024/01/12 09:28:21;;;;;;;;;0.33;0.33;;;;;19.29;34.85;103240.78;6367380;22;45243;-75
2024/01/12 09:30:47;;;;;;;;;1.33;1.00;;;;;19.34;34.90;103237.00;6367535;22;45276;-75
2024/01/12 09:33:13;;;;;;;;;0.33;0.33;;;;;19.21;34.89;103221.13;6367685;22;45421;-75
2024/01/12 09:35:39;;;;;;;;;1.67;1.33;;;;;19.31;35.12;103240.69;6366531;22;47454;-75
2024/01/12 09:38:05;;;;;;;;;1.00;1.00;;;;;19.26;34.93;103233.06;6367349;22;45704;-75
2024/01/12 09:40:30;;;;;;;;;1.33;1.33;;;;;19.30;35.13;103223.16;6367304;22;45224;-75
2024/01/12 09:42:56;;;;;;;;;0.00;0.00;;;;;19.29;34.81;103238.16;6367802;22;45212;-75
2024/01/12 09:45:23;;;;;;;;;1.00;1.00;;;;;19.31;34.85;103245.16;6367115;22;45295;-75
2024/01/12 09:47:48;;;;;;;;;2.33;1.33;;;;;19.12;34.88;103215.50;6366898;22;45541;-76
2024/01/12 09:50:14;;;;;;;;;1.00;1.00;;;;;19.25;34.97;103241.97;6366491;22;45374;-75
2024/01/12 09:52:39;;;;;;;;;1.00;1.00;;;;;19.30;35.00;103246.94;6367371;22;45293;-76
2024/01/12 09:55:06;;;;;;;;;1.00;1.00;;;;;19.17;34.89;103229.25;6367317;22;46066;-74
2024/01/12 09:57:33;;;;;;;;;2.00;1.00;;;;;19.29;35.00;103240.78;6367231;22;45281;-75
2024/01/12 10:00:01;;;;;;;;;1.00;1.00;;;;;19.16;34.85;103224.91;6367264;22;45347;-74
2024/01/12 10:02:27;;;;;;;;;2.00;0.00;;;;;19.06;35.00;103205.34;6339284;22;45202;-75
2024/01/12 10:04:52;;;;;;;;;1.00;1.00;;;;;19.20;34.80;103241.44;6366654;22;45995;-75
2024/01/12 10:07:18;;;;;;;;;2.00;1.67;;;;;19.29;34.81;103261.91;6367250;22;45541;-75
2024/01/12 10:09:43;;;;;;;;;2.67;2.00;;;;;19.16;34.88;103226.69;6367164;22;46651;-75
2024/01/12 10:12:09;;;;;;;;;2.67;1.00;;;;;19.16;34.85;103240.75;6366715;22;54992;-75
2024/01/12 10:14:34;;;;;;;;;1.75;1.75;;;;;19.21;34.88;103261.56;6366568;22;46821;-75
2024/01/12 10:17:00;;;;;;;;;1.00;1.00;;;;;19.20;34.94;103251.97;6367185;22;45300;-76
2024/01/12 10:19:26;;;;;;;;;0.00;0.00;;;;;19.15;34.88;103241.69;6366634;22;45278;-76
2024/01/12 10:21:52;;;;;;;;;1.00;1.00;;;;;19.29;34.82;103259.28;6366774;22;45233;-75
2024/01/12 10:24:20;;;;;;;;;3.00;1.33;;;;;19.16;34.85;103248.66;6366450;22;45990;-76
2024/01/12 10:26:46;;;;;;;;;2.33;2.00;;;;;19.15;35.21;103248.78;6366980;22;45716;-76
2024/01/12 10:29:16;;;;;;;;;1.00;1.00;;;;;19.29;34.83;103258.44;6338862;22;45280;-75
2024/01/12 10:31:43;;;;;;;;;1.00;1.00;;;;;19.14;34.93;103242.63;6366792;22;45393;-74
2024/01/12 10:34:11;;;;;;;;;1.33;1.33;;;;;19.32;34.74;103266.16;6365968;22;46191;-75
2024/01/12 10:36:38;;;;;;;;;1.00;1.00;;;;;19.32;34.90;103268.78;6366243;22;45327;-75
2024/01/12 10:39:08;;;;;;;;;1.00;1.00;;;;;19.32;34.72;103271.44;6366931;22;45287;-76
2024/01/12 10:41:34;;;;;;;;;2.33;1.00;;;;;19.32;34.75;103270.56;6368664;22;45229;-76
2024/01/12 10:44:04;;;;;;;;;1.75;1.00;;;;;19.28;34.91;103260.22;6367858;22;46251;-75
2024/01/12 10:46:32;;;;;;;;;1.67;1.67;;;;;19.34;34.95;103263.38;6367845;22;45379;-75
2024/01/12 10:49:17;;;;;;;;;2.33;0.33;;;;;19.33;34.68;103265.22;6368316;22;45330;-75
2024/01/12 10:52:01;;;;;;;;;1.33;0.00;;;;;19.18;34.92;103245.94;6368334;22;45626;-75
2024/01/12 10:54:32;;;;;;;;;0.67;0.00;;;;;19.35;35.00;103270.38;6368361;22;46027;-75
2024/01/12 10:56:58;;;;;;;;;1.00;1.00;;;;;19.34;34.74;103264.25;6368614;22;45486;-74
2024/01/12 10:59:25;;;;;;;;;2.00;1.00;;;;;19.30;34.79;103257.50;6368062;22;45343;-76
2024/01/12 11:01:51;;;;;;;;;1.00;1.00;;;;;19.34;34.75;103261.59;6368212;22;45363;-76
2024/01/12 11:04:16;;;;;;;;;2.00;1.00;;;;;19.34;34.74;103261.59;6367285;22;46909;-75
2024/01/12 11:06:44;;;;;;;;;3.00;2.00;;;;;19.34;34.80;103264.25;6368332;22;45335;-76
2024/01/12 11:09:12;;;;;;;;;3.00;1.00;;;;;18.98;34.86;103192.69;6368188;22;45230;-76
2024/01/12 11:11:47;;;;;;;;;1.00;1.00;;;;;19.29;34.94;103255.78;6339658;22;45390;-72
2024/01/12 11:14:15;;;;;;;;;1.00;1.00;;;;;19.29;34.66;103245.22;6367535;22;47079;-76
2024/01/12 11:16:41;;;;;;;;;1.67;1.67;;;;;19.33;34.76;103245.88;6366722;22;45272;-76